Time;durP1;ratioP1;P1;durP2;ratioP2;P2;SDS_P1;SDS_P2;PMS_P1;PMS_P2;Temp;Humidity;BMP_temperature;BMP_pressure;BME280_temperature;BME280_humidity;BME280_pressure;Samples;Min_cycle;Max_cycle;Signal;HPM_P1;HPM_P2
2022/02/15 00:00:05;;;;;;;2.70;2.50;;;6.70;99.90;;;;;;5026057;28;20674;-79
2022/02/15 00:02:41;;;;;;;2.77;2.57;;;6.70;99.90;;;;;;5023946;28;20198;-77
2022/02/15 00:05:09;;;;;;;2.70;2.50;;;6.70;99.90;;;;;;5021901;28;20221;-77
2022/02/15 00:07:37;;;;;;;2.60;2.40;;;6.70;99.90;;;;;;5023269;28;20695;-78
2022/02/15 00:10:05;;;;;;;2.93;2.63;;;6.70;99.90;;;;;;5022830;28;20686;-78
2022/02/15 00:12:32;;;;;;;3.03;2.80;;;6.70;99.90;;;;;;5023025;28;20190;-77
2022/02/15 00:14:58;;;;;;;3.23;2.80;;;6.70;99.90;;;;;;5023048;28;20364;-76
2022/02/15 00:17:25;;;;;;;2.70;2.50;;;6.70;99.90;;;;;;5019375;28;20205;-76
2022/02/15 00:19:52;;;;;;;2.70;2.50;;;6.70;99.90;;;;;;5019859;28;20206;-77
2022/02/15 00:22:19;;;;;;;2.70;2.50;;;6.70;99.90;;;;;;5023745;28;20618;-77
2022/02/15 00:24:47;;;;;;;3.13;2.83;;;6.70;99.90;;;;;;5022272;28;20270;-76
2022/02/15 00:27:14;;;;;;;3.00;2.80;;;6.60;99.90;;;;;;5023733;28;20198;-77
2022/02/15 00:29:41;;;;;;;3.23;2.70;;;6.60;99.90;;;;;;5022517;28;20226;-77
2022/02/15 00:32:08;;;;;;;3.07;2.53;;;6.60;99.90;;;;;;5024181;28;20713;-77
2022/02/15 00:34:35;;;;;;;2.80;2.60;;;6.60;99.90;;;;;;5019480;28;20224;-77
2022/02/15 00:37:03;;;;;;;2.57;2.37;;;6.60;99.90;;;;;;5017931;28;20198;-78
2022/02/15 00:39:30;;;;;;;2.80;2.60;;;6.60;99.90;;;;;;5028829;28;20714;-77
2022/02/15 00:41:58;;;;;;;2.73;2.53;;;6.60;99.90;;;;;;5020805;28;20668;-77
2022/02/15 00:44:26;;;;;;;2.70;2.50;;;6.60;99.90;;;;;;5021360;28;20729;-77
2022/02/15 00:46:54;;;;;;;2.87;2.50;;;6.50;99.90;;;;;;5021815;28;20204;-78
2022/02/15 00:49:22;;;;;;;2.90;2.70;;;6.50;99.90;;;;;;5024627;28;20210;-77
2022/02/15 00:51:49;;;;;;;2.70;2.50;;;6.40;99.90;;;;;;5017079;28;20229;-78
2022/02/15 00:54:16;;;;;;;2.60;2.40;;;6.40;99.90;;;;;;5021316;28;20231;-77
2022/02/15 00:56:43;;;;;;;3.10;2.80;;;6.40;99.90;;;;;;5020266;28;20202;-76
2022/02/15 00:59:11;;;;;;;3.00;2.60;;;6.40;99.90;;;;;;5021776;28;20202;-77
2022/02/15 01:01:39;;;;;;;2.60;2.40;;;6.40;99.90;;;;;;5013036;28;20197;-76
2022/02/15 01:04:06;;;;;;;2.70;2.50;;;6.40;99.90;;;;;;5021104;28;20211;-75
2022/02/15 01:06:33;;;;;;;2.83;2.63;;;6.40;99.90;;;;;;5016048;28;20213;-77
2022/02/15 01:09:00;;;;;;;2.73;2.47;;;6.40;99.90;;;;;;5023756;28;20688;-77
2022/02/15 01:11:27;;;;;;;2.30;2.20;;;6.40;99.90;;;;;;5019579;28;20224;-78
2022/02/15 01:13:54;;;;;;;3.23;2.47;;;6.40;99.90;;;;;;5024706;28;20197;-77
2022/02/15 01:16:22;;;;;;;2.43;2.23;;;6.40;99.90;;;;;;5021150;28;20674;-77
2022/02/15 01:18:49;;;;;;;2.60;2.40;;;6.40;99.90;;;;;;5020250;28;20210;-77
2022/02/15 01:21:16;;;;;;;2.70;2.50;;;6.40;99.90;;;;;;5022634;28;20196;-77
2022/02/15 01:23:43;;;;;;;2.47;2.37;;;6.40;99.90;;;;;;5010970;28;20210;-76
2022/02/15 01:26:10;;;;;;;2.70;2.50;;;6.30;99.90;;;;;;5019897;28;20222;-77
2022/02/15 01:28:37;;;;;;;3.30;2.47;;;6.30;99.90;;;;;;5011397;28;20255;-77
2022/02/15 01:31:05;;;;;;;2.50;2.30;;;6.30;99.90;;;;;;5020405;28;20228;-77
2022/02/15 01:33:33;;;;;;;3.03;2.57;;;6.30;99.90;;;;;;5023106;28;20193;-77
2022/02/15 01:36:01;;;;;;;3.40;2.23;;;6.30;99.90;;;;;;5019405;28;20222;-77
2022/02/15 01:38:28;;;;;;;2.70;2.50;;;6.30;99.90;;;;;;5019249;28;20200;-77
2022/02/15 01:40:55;;;;;;;2.70;2.50;;;6.20;99.90;;;;;;5022696;28;20690;-78
2022/02/15 01:43:22;;;;;;;2.60;2.40;;;6.20;99.90;;;;;;5015895;28;20237;-77
2022/02/15 01:45:49;;;;;;;2.50;2.30;;;6.20;99.90;;;;;;5024337;28;20905;-77
2022/02/15 01:48:17;;;;;;;2.30;2.10;;;6.10;99.90;;;;;;5026772;28;20203;-77
2022/02/15 01:50:45;;;;;;;2.73;2.53;;;6.10;99.90;;;;;;5020808;28;20303;-77
2022/02/15 01:53:12;;;;;;;2.73;2.53;;;6.00;99.90;;;;;;5017650;28;20193;-78
2022/02/15 01:55:39;;;;;;;3.13;2.53;;;6.00;99.90;;;;;;5020191;28;20221;-77
2022/02/15 01:58:07;;;;;;;3.20;2.90;;;6.00;99.90;;;;;;5021231;28;20196;-77
2022/02/15 02:00:37;;;;;;;3.93;2.93;;;6.00;99.90;;;;;;5020324;28;20244;-77
2022/02/15 02:03:14;;;;;;;4.80;2.97;;;5.90;99.90;;;;;;5021245;28;20562;-77
2022/02/15 02:05:49;;;;;;;5.07;4.03;;;5.90;99.90;;;;;;5025411;28;20227;-77
2022/02/15 02:08:28;;;;;;;4.00;3.47;;;5.80;99.90;;;;;;5023795;28;20204;-77
2022/02/15 02:10:57;;;;;;;5.07;3.70;;;5.70;99.90;;;;;;5022742;28;20311;-76
2022/02/15 02:13:47;;;;;;;9.33;8.43;;;5.70;99.90;;;;;;5016490;28;20290;-77
2022/02/15 02:16:14;;;;;;;9.07;8.27;;;5.60;99.90;;;;;;5018063;28;20300;-77
2022/02/15 02:18:51;;;;;;;8.63;7.83;;;5.60;99.90;;;;;;5019417;28;20237;-77
2022/02/15 02:21:35;;;;;;;7.73;7.13;;;5.40;99.90;;;;;;5021674;28;20200;-77
2022/02/15 02:24:02;;;;;;;7.00;6.50;;;5.50;99.90;;;;;;5019323;28;20608;-77
2022/02/15 02:26:30;;;;;;;6.67;6.20;;;5.40;99.90;;;;;;5018918;28;20353;-77
2022/02/15 02:28:57;;;;;;;7.23;6.63;;;5.50;99.90;;;;;;5019807;28;20208;-76
2022/02/15 02:31:27;;;;;;;6.47;5.97;;;5.40;99.90;;;;;;5006749;28;20220;-76
2022/02/15 02:34:04;;;;;;;7.57;7.00;;;5.50;99.90;;;;;;5014368;28;20251;-77
2022/02/15 02:36:41;;;;;;;5.97;5.57;;;5.40;99.90;;;;;;5022094;28;20196;-77
2022/02/15 02:39:09;;;;;;;6.63;6.13;;;5.40;99.90;;;;;;5013590;28;20252;-78
2022/02/15 02:41:36;;;;;;;7.07;6.57;;;5.40;99.90;;;;;;5021025;28;20258;-77
2022/02/15 02:44:03;;;;;;;6.23;5.83;;;5.40;99.90;;;;;;5018907;28;20193;-77
2022/02/15 02:46:30;;;;;;;5.93;5.53;;;5.40;99.90;;;;;;5021333;28;20196;-77
2022/02/15 02:48:57;;;;;;;6.37;5.97;;;5.40;99.90;;;;;;5020453;28;20581;-77
2022/02/15 02:51:25;;;;;;;6.20;5.77;;;5.50;99.90;;;;;;5015680;28;20789;-77
2022/02/15 02:53:52;;;;;;;7.00;6.50;;;5.50;99.90;;;;;;5016420;28;20255;-76
2022/02/15 02:56:22;;;;;;;6.53;6.03;;;5.50;99.90;;;;;;5019201;28;20193;-76
2022/02/15 02:58:52;;;;;;;7.13;6.63;;;5.60;99.90;;;;;;5018816;28;20569;-78
2022/02/15 03:01:18;;;;;;;6.37;5.87;;;5.60;99.90;;;;;;5021058;28;20275;-77
2022/02/15 03:03:46;;;;;;;6.77;6.27;;;5.60;99.90;;;;;;5019853;28;20197;-76
2022/02/15 03:06:13;;;;;;;7.23;6.70;;;5.60;99.90;;;;;;5022037;28;20212;-77
2022/02/15 03:08:41;;;;;;;7.10;6.60;;;5.50;99.90;;;;;;5016737;28;20230;-77
2022/02/15 03:11:09;;;;;;;6.93;6.53;;;5.50;99.90;;;;;;5015110;28;20206;-77
2022/02/15 03:13:40;;;;;;;7.30;6.80;;;5.50;99.90;;;;;;5020264;28;20199;-77
2022/02/15 03:16:13;;;;;;;8.50;7.80;;;5.40;99.90;;;;;;5020790;28;20326;-77
2022/02/15 03:18:42;;;;;;;8.20;7.60;;;5.40;99.90;;;;;;5019849;28;20197;-77
2022/02/15 03:21:12;;;;;;;7.90;7.20;;;5.40;99.90;;;;;;5019129;28;20200;-77
2022/02/15 03:23:38;;;;;;;8.67;8.07;;;5.50;99.90;;;;;;5021042;28;20310;-77
2022/02/15 03:26:07;;;;;;;8.90;8.20;;;5.60;99.90;;;;;;5023031;28;20224;-74
2022/02/15 03:28:35;;;;;;;9.37;8.67;;;5.60;99.90;;;;;;5025068;28;20196;-77
2022/02/15 03:31:04;;;;;;;8.83;8.10;;;5.60;99.90;;;;;;5022304;28;20212;-77
2022/02/15 03:33:34;;;;;;;8.70;7.90;;;5.60;99.90;;;;;;5022162;28;20204;-77
2022/02/15 03:36:04;;;;;;;8.30;7.60;;;5.60;99.90;;;;;;5025806;28;20646;-77
2022/02/15 03:38:32;;;;;;;9.23;8.63;;;5.60;99.90;;;;;;5012700;28;20250;-77
2022/02/15 03:43:54;;;;;;;9.80;9.00;;;5.60;99.90;;;;;;5017372;28;20197;-75
2022/02/15 03:46:27;;;;;;;8.77;8.17;;;5.70;99.90;;;;;;5012702;28;20215;-78
2022/02/15 03:48:54;;;;;;;8.37;7.77;;;5.70;99.90;;;;;;5019090;28;20681;-78
2022/02/15 03:51:21;;;;;;;8.47;7.80;;;5.70;99.90;;;;;;5013422;28;20208;-77
2022/02/15 03:53:53;;;;;;;10.03;9.33;;;5.70;99.90;;;;;;5013724;28;20263;-77
2022/02/15 03:56:21;;;;;;;8.77;8.07;;;5.70;99.90;;;;;;5015863;28;20208;-77
2022/02/15 03:58:48;;;;;;;9.00;8.30;;;5.70;99.90;;;;;;5025049;28;20212;-77
2022/02/15 04:01:17;;;;;;;8.83;8.13;;;5.70;99.90;;;;;;5019106;28;20197;-78
2022/02/15 04:03:46;;;;;;;8.90;8.20;;;5.70;99.90;;;;;;5021369;28;20204;-78
2022/02/15 04:06:14;;;;;;;9.27;8.67;;;5.70;99.90;;;;;;5022990;28;20650;-79
2022/02/15 04:08:42;;;;;;;9.80;9.00;;;5.80;99.90;;;;;;5022398;28;20200;-79
2022/02/15 04:11:09;;;;;;;8.70;8.10;;;5.80;99.90;;;;;;5010559;28;20706;-78
2022/02/15 04:13:36;;;;;;;3.37;3.07;;;5.80;99.90;;;;;;5012546;28;20201;-78
2022/02/15 04:16:05;;;;;;;4.57;3.30;;;5.90;99.90;;;;;;5018706;28;20229;-78
2022/02/15 04:18:33;;;;;;;6.20;3.10;;;5.90;99.90;;;;;;5024825;28;20271;-77
2022/02/15 04:21:02;;;;;;;3.23;2.93;;;5.90;99.90;;;;;;5024607;28;20206;-77
2022/02/15 04:23:31;;;;;;;3.60;2.90;;;5.90;99.90;;;;;;5017388;28;20204;-78
2022/02/15 04:25:58;;;;;;;3.53;2.80;;;5.90;99.90;;;;;;5026327;28;20713;-78
2022/02/15 04:28:37;;;;;;;3.10;2.90;;;6.00;99.90;;;;;;5018145;28;20188;-78
2022/02/15 04:31:17;;;;;;;3.27;2.87;;;6.00;99.90;;;;;;5022933;28;20212;-79
2022/02/15 04:33:45;;;;;;;3.17;2.83;;;6.00;99.90;;;;;;5016564;28;20205;-77
2022/02/15 04:36:14;;;;;;;3.73;2.80;;;6.00;99.90;;;;;;5022446;28;20303;-77
2022/02/15 04:38:42;;;;;;;3.10;2.90;;;6.10;99.90;;;;;;5024096;28;20285;-77
2022/02/15 04:41:09;;;;;;;3.20;2.70;;;6.00;99.90;;;;;;5014806;28;20208;-77
2022/02/15 04:43:37;;;;;;;5.57;3.23;;;6.00;99.90;;;;;;5013260;28;20198;-78
2022/02/15 04:46:13;;;;;;;3.10;2.80;;;6.00;99.90;;;;;;5012336;28;20216;-77
2022/02/15 04:48:40;;;;;;;3.40;2.93;;;6.00;99.90;;;;;;5021013;28;20628;-78
2022/02/15 04:51:07;;;;;;;3.50;3.20;;;6.00;99.90;;;;;;5024149;28;20217;-77
2022/02/15 04:53:36;;;;;;;4.73;3.20;;;6.00;99.90;;;;;;5024623;28;20206;-77
2022/02/15 04:56:04;;;;;;;4.00;3.27;;;6.00;99.90;;;;;;5025097;28;20752;-77
2022/02/15 04:58:32;;;;;;;3.90;3.27;;;6.00;99.90;;;;;;5021418;28;20292;-78
2022/02/15 05:00:59;;;;;;;3.90;3.60;;;5.90;99.90;;;;;;5027524;28;20716;-77
2022/02/15 05:03:42;;;;;;;5.07;3.40;;;6.00;99.90;;;;;;5022241;28;20606;-78
2022/02/15 05:06:09;;;;;;;3.90;3.43;;;6.00;99.90;;;;;;5015996;28;20225;-78
2022/02/15 05:08:37;;;;;;;3.47;3.17;;;6.00;99.90;;;;;;5013990;28;20212;-78
2022/02/15 05:11:06;;;;;;;4.77;4.27;;;6.00;99.90;;;;;;5010711;28;20221;-78
2022/02/15 05:13:47;;;;;;;8.23;7.63;;;5.90;99.90;;;;;;5012298;28;20206;-80
2022/02/15 05:16:33;;;;;;;8.37;7.80;;;5.90;99.90;;;;;;5013888;28;20197;-77
2022/02/15 05:19:16;;;;;;;6.90;4.87;;;5.90;99.90;;;;;;5020908;28;20196;-77
2022/02/15 05:21:48;;;;;;;6.50;6.07;;;5.90;99.90;;;;;;5005853;28;20196;-78
2022/02/15 05:24:16;;;;;;;3.90;3.23;;;5.90;99.90;;;;;;5014115;28;20232;-77
2022/02/15 05:26:55;;;;;;;3.67;3.27;;;5.90;99.90;;;;;;5018512;28;20582;-78
2022/02/15 05:29:38;;;;;;;4.10;3.13;;;5.90;99.90;;;;;;5007784;28;20808;-78
2022/02/15 05:32:23;;;;;;;4.10;3.13;;;5.90;99.90;;;;;;5015017;28;20318;-78
2022/02/15 05:34:55;;;;;;;4.77;3.80;;;5.90;99.90;;;;;;5023041;28;20705;-77
2022/02/15 05:37:22;;;;;;;4.73;3.70;;;5.90;99.90;;;;;;5029164;28;20201;-79
2022/02/15 05:39:53;;;;;;;4.97;3.90;;;5.90;99.90;;;;;;5017504;28;20200;-78
2022/02/15 05:42:38;;;;;;;5.50;3.47;;;5.80;99.90;;;;;;5024911;28;20571;-79
2022/02/15 05:45:07;;;;;;;4.80;3.70;;;5.80;99.90;;;;;;5025446;28;20228;-78
2022/02/15 05:47:39;;;;;;;8.13;4.90;;;5.80;99.90;;;;;;5019722;28;20284;-77
2022/02/15 05:52:51;;;;;;;6.10;4.70;;;5.70;99.90;;;;;;5019976;28;20231;-77
2022/02/15 05:55:20;;;;;;;7.70;4.60;;;5.70;99.90;;;;;;5022832;28;20217;-79
2022/02/15 05:57:47;;;;;;;5.87;3.73;;;5.70;99.90;;;;;;5002374;28;20413;-78
2022/02/15 06:00:16;;;;;;;5.33;3.87;;;5.70;99.90;;;;;;5013084;28;20677;-78
2022/02/15 06:02:43;;;;;;;5.00;3.97;;;5.70;99.90;;;;;;5011064;28;20229;-76
2022/02/15 06:05:15;;;;;;;6.10;4.43;;;5.60;99.90;;;;;;5022193;28;20220;-76
2022/02/15 06:07:48;;;;;;;5.90;4.00;;;5.60;99.90;;;;;;5017365;28;20638;-77
2022/02/15 06:10:27;;;;;;;6.43;4.27;;;5.60;99.90;;;;;;5021255;28;20286;-77
2022/02/15 06:12:55;;;;;;;5.43;4.40;;;5.70;99.90;;;;;;5022702;28;20710;-77
2022/02/15 06:15:26;;;;;;;6.97;4.90;;;5.60;99.90;;;;;;5022840;28;20700;-77
2022/02/15 06:18:10;;;;;;;10.90;6.27;;;5.70;99.90;;;;;;5022084;28;20208;-77
2022/02/15 06:20:46;;;;;;;9.70;5.80;;;5.70;99.90;;;;;;5024190;28;20203;-76
2022/02/15 06:23:18;;;;;;;10.83;7.70;;;5.70;99.90;;;;;;5020869;28;20270;-77
2022/02/15 06:25:47;;;;;;;9.40;6.80;;;5.70;99.90;;;;;;5019588;28;20303;-77
2022/02/15 06:28:16;;;;;;;11.00;6.23;;;5.70;99.90;;;;;;5026911;28;20783;-77
2022/02/15 06:30:50;;;;;;;10.30;6.10;;;5.70;99.90;;;;;;5019525;28;20197;-77
2022/02/15 06:33:22;;;;;;;10.53;6.67;;;5.70;99.90;;;;;;5019980;28;20231;-77
2022/02/15 06:35:51;;;;;;;13.83;6.90;;;5.70;99.90;;;;;;5019383;28;20757;-77
2022/02/15 06:38:18;;;;;;;8.47;5.90;;;5.70;99.90;;;;;;5021398;28;20294;-77
2022/02/15 06:40:56;;;;;;;8.87;6.40;;;5.70;99.90;;;;;;5022682;28;20196;-77
2022/02/15 06:43:34;;;;;;;9.37;6.50;;;5.70;99.90;;;;;;5014881;28;20205;-77
2022/02/15 06:46:01;;;;;;;8.97;6.00;;;5.80;99.90;;;;;;5022595;28;20252;-77
2022/02/15 06:48:33;;;;;;;10.30;7.20;;;5.80;99.90;;;;;;5016304;28;20197;-77
2022/02/15 06:50:59;;;;;;;10.80;6.33;;;5.80;99.90;;;;;;5027598;28;20204;-77
2022/02/15 06:53:50;;;;;;;7.87;6.27;;;5.90;99.90;;;;;;5021650;28;20580;-77
2022/02/15 06:56:25;;;;;;;9.77;6.50;;;5.80;99.90;;;;;;5021661;28;20217;-80
2022/02/15 06:58:57;;;;;;;11.40;6.90;;;5.90;99.90;;;;;;5033105;28;20567;-76
2022/02/15 07:01:28;;;;;;;10.60;7.17;;;5.90;99.90;;;;;;5016899;28;20197;-76
2022/02/15 07:03:56;;;;;;;10.60;7.47;;;6.00;99.90;;;;;;5020396;28;20233;-76
2022/02/15 07:06:24;;;;;;;10.37;6.90;;;6.00;99.90;;;;;;5024251;28;20560;-75
2022/02/15 07:08:51;;;;;;;8.83;6.30;;;6.00;99.90;;;;;;5023012;28;20225;-77
2022/02/15 07:11:20;;;;;;;9.73;6.90;;;6.00;99.90;;;;;;5023468;28;20239;-75
2022/02/15 07:13:50;;;;;;;11.53;6.83;;;6.00;99.90;;;;;;5021747;28;20204;-73
2022/02/15 07:16:18;;;;;;;11.00;7.30;;;6.10;99.90;;;;;;5009336;28;20232;-73
2022/02/15 07:18:45;;;;;;;14.20;6.80;;;6.10;99.90;;;;;;5013961;28;20208;-74
2022/02/15 07:21:27;;;;;;;9.57;7.10;;;6.10;99.90;;;;;;5020795;28;20666;-73
2022/02/15 07:24:13;;;;;;;12.37;7.00;;;6.10;99.90;;;;;;5016570;28;20212;-74
2022/02/15 07:26:58;;;;;;;10.30;7.17;;;6.20;99.90;;;;;;5009218;28;20304;-74
2022/02/15 07:29:29;;;;;;;8.23;6.10;;;6.20;99.90;;;;;;5025050;28;20203;-74
2022/02/15 07:32:18;;;;;;;8.00;5.40;;;6.20;99.90;;;;;;5014244;28;20225;-73
2022/02/15 07:34:45;;;;;;;7.27;5.13;;;6.30;99.90;;;;;;5013858;28;20221;-74
2022/02/15 07:37:12;;;;;;;7.40;5.20;;;6.40;99.90;;;;;;5016092;28;20201;-75
2022/02/15 07:39:39;;;;;;;8.93;5.07;;;6.40;99.90;;;;;;5018296;28;20658;-74
2022/02/15 07:42:07;;;;;;;5.93;4.30;;;6.40;99.90;;;;;;5014365;28;20193;-74
2022/02/15 07:44:42;;;;;;;5.00;4.30;;;6.50;99.90;;;;;;5013015;28;20229;-76
2022/02/15 07:47:09;;;;;;;5.40;4.13;;;6.40;99.90;;;;;;5021814;28;20202;-76
2022/02/15 07:49:36;;;;;;;4.90;3.83;;;6.50;99.90;;;;;;5021440;28;20202;-75
2022/02/15 07:52:04;;;;;;;5.33;4.20;;;6.50;99.90;;;;;;5010108;28;20218;-76
2022/02/15 07:54:32;;;;;;;6.83;4.80;;;6.50;99.90;;;;;;5009633;28;20222;-76
2022/02/15 07:56:58;;;;;;;9.47;8.67;;;6.50;99.90;;;;;;5011670;28;20229;-76
2022/02/15 07:59:25;;;;;;;9.17;8.47;;;6.50;99.90;;;;;;5014096;28;20194;-76
2022/02/15 08:01:54;;;;;;;9.20;8.50;;;6.50;99.90;;;;;;5011792;28;20202;-76
2022/02/15 08:04:21;;;;;;;9.60;8.80;;;6.50;99.90;;;;;;5013166;28;20221;-76
2022/02/15 08:06:54;;;;;;;9.77;8.97;;;6.50;99.90;;;;;;5012269;28;20215;-76
2022/02/15 08:09:22;;;;;;;9.53;8.73;;;6.50;99.90;;;;;;5020482;28;21729;-76
2022/02/15 08:11:54;;;;;;;9.60;8.70;;;6.60;99.90;;;;;;5019442;28;20227;-76
2022/02/15 08:14:22;;;;;;;9.70;8.90;;;6.60;99.90;;;;;;5020007;28;20234;-75
2022/02/15 08:16:50;;;;;;;9.97;8.43;;;6.70;99.90;;;;;;5024354;28;20689;-76
2022/02/15 08:19:26;;;;;;;9.47;8.67;;;6.80;99.90;;;;;;5021548;28;20191;-75
2022/02/15 08:21:54;;;;;;;9.37;8.60;;;6.80;99.90;;;;;;5016127;28;20671;-76
2022/02/15 08:24:22;;;;;;;8.53;7.83;;;6.90;99.90;;;;;;5021422;28;20219;-75
2022/02/15 08:26:49;;;;;;;8.07;7.37;;;6.90;99.90;;;;;;5015463;28;20249;-76
2022/02/15 08:29:16;;;;;;;9.10;8.30;;;7.00;99.90;;;;;;5020879;28;20658;-76
2022/02/15 08:31:43;;;;;;;8.63;7.83;;;7.00;99.90;;;;;;5018237;28;20215;-76
2022/02/15 08:34:10;;;;;;;8.60;7.90;;;7.00;99.90;;;;;;5016196;28;20622;-76
2022/02/15 08:36:38;;;;;;;10.17;9.33;;;7.00;99.90;;;;;;5012144;28;20194;-76
2022/02/15 08:39:06;;;;;;;10.43;9.47;;;7.10;99.90;;;;;;5013335;28;20202;-76
2022/02/15 08:41:33;;;;;;;10.10;9.13;;;7.20;99.90;;;;;;5013553;28;20207;-76
2022/02/15 08:43:59;;;;;;;9.83;9.03;;;7.30;99.90;;;;;;5012533;28;20207;-75
2022/02/15 08:46:27;;;;;;;10.47;9.57;;;7.40;99.90;;;;;;5019465;28;20673;-77
2022/02/15 08:48:54;;;;;;;10.77;9.97;;;7.50;99.90;;;;;;5016162;28;20215;-76
2022/02/15 08:51:21;;;;;;;10.90;10.00;;;7.70;99.90;;;;;;5024038;28;20203;-75
2022/02/15 08:53:51;;;;;;;11.90;11.10;;;7.90;99.90;;;;;;5025171;28;20762;-76
2022/02/15 08:56:18;;;;;;;11.10;10.20;;;8.00;99.90;;;;;;5021698;28;20247;-75
2022/02/15 08:58:45;;;;;;;8.73;7.93;;;8.20;99.90;;;;;;5024053;28;20866;-76
2022/02/15 09:01:12;;;;;;;8.43;7.73;;;8.30;99.90;;;;;;5015329;28;20654;-76
2022/02/15 09:03:39;;;;;;;9.60;8.80;;;8.40;99.90;;;;;;5025141;28;20649;-77
2022/02/15 09:06:06;;;;;;;10.87;10.07;;;8.30;99.90;;;;;;5021410;28;20273;-76
2022/02/15 09:08:34;;;;;;;10.53;9.80;;;8.20;99.90;;;;;;5023867;28;20207;-80
2022/02/15 09:11:03;;;;;;;10.63;9.83;;;8.10;99.90;;;;;;5025335;28;20679;-78
2022/02/15 09:13:30;;;;;;;10.80;10.00;;;8.10;99.90;;;;;;5007059;28;20212;-77
2022/02/15 09:15:57;;;;;;;9.80;9.10;;;8.10;99.90;;;;;;5017652;28;20232;-76
2022/02/15 09:18:24;;;;;;;9.80;9.10;;;8.00;99.90;;;;;;5020384;28;20574;-77
2022/02/15 09:20:51;;;;;;;9.23;8.53;;;8.00;99.90;;;;;;5017986;28;20196;-76
2022/02/15 09:23:18;;;;;;;9.10;8.50;;;8.00;99.90;;;;;;5024065;28;20195;-76
2022/02/15 09:25:45;;;;;;;9.17;8.27;;;8.00;99.90;;;;;;5019291;28;20266;-76
2022/02/15 09:28:13;;;;;;;9.20;8.50;;;8.10;99.90;;;;;;5024540;28;20200;-77
2022/02/15 09:30:40;;;;;;;9.50;8.80;;;8.20;99.90;;;;;;5017825;28;20204;-77
2022/02/15 09:33:07;;;;;;;10.27;9.50;;;8.20;99.90;;;;;;5025288;28;20627;-77
2022/02/15 09:35:33;;;;;;;10.40;9.70;;;8.20;99.90;;;;;;5020495;28;20216;-77
2022/02/15 09:38:01;;;;;;;10.70;9.80;;;8.20;99.90;;;;;;5027948;28;20200;-77
2022/02/15 09:40:29;;;;;;;10.33;9.60;;;8.30;99.90;;;;;;5014614;28;20768;-78
2022/02/15 09:42:57;;;;;;;11.93;10.93;;;8.40;99.90;;;;;;5020352;28;20204;-78
2022/02/15 09:45:25;;;;;;;12.10;11.20;;;8.50;99.90;;;;;;5024999;28;20641;-76
2022/02/15 09:47:54;;;;;;;12.20;11.40;;;8.60;99.90;;;;;;5006331;28;20200;-77
2022/02/15 09:50:22;;;;;;;11.40;10.50;;;8.80;99.90;;;;;;5010823;28;20291;-76
2022/02/15 09:52:49;;;;;;;4.83;4.13;;;8.90;99.90;;;;;;5013915;28;20216;-76
2022/02/15 09:55:16;;;;;;;5.07;3.90;;;9.00;99.90;;;;;;5018008;28;20232;-76
2022/02/15 09:57:44;;;;;;;4.67;3.83;;;9.00;99.90;;;;;;5014839;28;20199;-77
2022/02/15 10:00:12;;;;;;;5.07;4.00;;;9.00;99.90;;;;;;5021440;28;20197;-77
2022/02/15 10:02:44;;;;;;;9.83;9.13;;;9.00;99.90;;;;;;5024683;28;20691;-78
2022/02/15 10:05:16;;;;;;;10.93;10.13;;;8.90;99.90;;;;;;5022122;28;20224;-78
2022/02/15 10:07:46;;;;;;;11.90;11.00;;;8.90;99.90;;;;;;5015516;28;20295;-78
2022/02/15 10:10:16;;;;;;;10.70;10.00;;;8.90;99.90;;;;;;5014415;28;20197;-77
2022/02/15 10:12:45;;;;;;;11.40;10.60;;;8.80;99.90;;;;;;5023978;28;20231;-78
2022/02/15 10:15:12;;;;;;;11.83;10.97;;;8.70;99.90;;;;;;5014498;28;20256;-76
2022/02/15 10:17:46;;;;;;;12.00;11.10;;;8.60;99.90;;;;;;5023672;28;20202;-76
2022/02/15 10:20:15;;;;;;;12.07;11.27;;;8.50;99.90;;;;;;5020937;28;20208;-77
2022/02/15 10:22:42;;;;;;;12.70;11.90;;;8.40;99.90;;;;;;5010905;28;20220;-76
2022/02/15 10:25:09;;;;;;;11.67;10.90;;;8.30;99.90;;;;;;5011143;28;20220;-75
2022/02/15 10:27:35;;;;;;;10.63;9.83;;;8.20;99.90;;;;;;5018126;28;20626;-74
2022/02/15 10:30:05;;;;;;;10.73;10.13;;;8.30;99.90;;;;;;5011722;28;20204;-75
2022/02/15 10:32:32;;;;;;;11.00;10.30;;;8.40;99.90;;;;;;5013291;28;20208;-76
2022/02/15 10:35:01;;;;;;;10.83;10.07;;;8.50;99.90;;;;;;5013883;28;20270;-75
2022/02/15 10:37:31;;;;;;;10.67;9.93;;;8.60;99.90;;;;;;5012625;28;20195;-75
2022/02/15 10:39:59;;;;;;;11.43;10.63;;;8.60;99.90;;;;;;5013879;28;20204;-75
2022/02/15 10:42:28;;;;;;;10.63;9.93;;;8.60;99.90;;;;;;5014976;28;20204;-75
2022/02/15 10:45:00;;;;;;;11.40;10.70;;;8.70;99.90;;;;;;5011499;28;20225;-75
2022/02/15 10:47:29;;;;;;;10.60;9.90;;;9.00;99.90;;;;;;5012670;28;20191;-75
2022/02/15 10:49:58;;;;;;;9.80;9.20;;;9.30;99.90;;;;;;5013845;28;20193;-75
2022/02/15 10:52:27;;;;;;;9.30;8.67;;;9.50;99.90;;;;;;5020802;28;20224;-75
2022/02/15 10:54:54;;;;;;;3.00;2.83;;;9.70;99.90;;;;;;5015860;28;20223;-74
2022/02/15 10:57:23;;;;;;;9.67;9.07;;;9.90;99.90;;;;;;5010442;28;20201;-75
2022/02/15 10:59:53;;;;;;;2.47;2.30;;;10.10;99.90;;;;;;5011974;28;20196;-75
2022/02/15 11:02:23;;;;;;;11.20;10.30;;;10.30;99.90;;;;;;5001923;28;20277;-76
2022/02/15 11:04:51;;;;;;;2.50;2.30;;;10.20;99.90;;;;;;5010971;28;20693;-76
2022/02/15 11:07:19;;;;;;;3.30;2.10;;;10.00;99.90;;;;;;5011434;28;20272;-74
2022/02/15 11:09:59;;;;;;;6.37;5.97;;;9.90;99.90;;;;;;5014938;28;20200;-75
2022/02/15 11:12:33;;;;;;;3.80;3.60;;;9.80;99.90;;;;;;5015390;28;20199;-75
2022/02/15 11:15:02;;;;;;;7.83;7.33;;;9.70;99.90;;;;;;5038025;23;20329;-76
2022/02/15 11:17:31;;;;;;;8.20;7.70;;;9.50;99.90;;;;;;5028362;28;20568;-76
2022/02/15 11:20:00;;;;;;;8.73;8.23;;;9.30;99.90;;;;;;5026874;28;20801;-76
2022/02/15 11:22:28;;;;;;;8.60;8.00;;;9.20;99.90;;;;;;5034790;28;20190;-77
2022/02/15 11:24:57;;;;;;;7.57;7.17;;;9.20;99.90;;;;;;5033405;28;20227;-76
2022/02/15 11:27:24;;;;;;;7.80;7.30;;;9.10;99.90;;;;;;5037794;28;20202;-78
2022/02/15 11:29:53;;;;;;;2.40;2.20;;;9.00;99.90;;;;;;5053222;28;20242;-75
2022/02/15 11:32:29;;;;;;;8.67;8.13;;;8.90;99.90;;;;;;5034709;28;20199;-76
2022/02/15 11:34:56;;;;;;;9.27;8.77;;;8.90;99.90;;;;;;5031941;28;20215;-76
2022/02/15 11:37:26;;;;;;;8.93;8.43;;;8.90;99.90;;;;;;5033258;28;20645;-75
2022/02/15 11:40:08;;;;;;;8.30;7.80;;;8.90;99.90;;;;;;5035978;28;20208;-76
2022/02/15 11:42:46;;;;;;;9.00;8.50;;;8.90;99.90;;;;;;5035608;28;20258;-76
2022/02/15 11:45:27;;;;;;;8.40;7.90;;;9.00;99.90;;;;;;5037148;28;20215;-75
2022/02/15 11:48:02;;;;;;;8.80;8.30;;;9.00;99.90;;;;;;5033453;28;20262;-76
2022/02/15 11:50:40;;;;;;;8.90;8.30;;;9.00;99.90;;;;;;5036061;28;20664;-76
2022/02/15 11:53:07;;;;;;;9.27;8.57;;;9.00;99.90;;;;;;5036397;28;20223;-75
2022/02/15 11:55:36;;;;;;;8.87;8.37;;;9.10;99.90;;;;;;5037557;28;20227;-75
2022/02/15 11:58:03;;;;;;;8.80;8.23;;;9.10;99.90;;;;;;5035361;28;20249;-75
2022/02/15 12:00:33;;;;;;;9.43;8.83;;;9.20;99.90;;;;;;5040520;28;20567;-75
2022/02/15 12:03:00;;;;;;;8.70;8.20;;;9.30;99.90;;;;;;5041456;28;20197;-76
2022/02/15 12:05:28;;;;;;;11.67;10.97;;;9.40;99.90;;;;;;5057803;28;20227;-75
2022/02/15 12:07:56;;;;;;;9.20;8.60;;;9.50;99.90;;;;;;5039113;28;20575;-75
2022/02/15 12:10:25;;;;;;;8.50;7.90;;;9.50;99.90;;;;;;5043111;28;20198;-75
2022/02/15 12:12:53;;;;;;;8.23;7.73;;;9.60;99.90;;;;;;5041724;28;20745;-76
2022/02/15 12:15:22;;;;;;;7.50;6.90;;;9.60;99.90;;;;;;5037659;28;20224;-75
2022/02/15 12:17:49;;;;;;;10.00;9.20;;;9.60;99.90;;;;;;5042298;28;20205;-76
2022/02/15 12:20:17;;;;;;;9.40;8.70;;;9.50;99.90;;;;;;5049496;28;20195;-76
2022/02/15 12:22:45;;;;;;;9.20;8.60;;;9.60;99.90;;;;;;5037602;28;20207;-76
2022/02/15 12:25:43;;;;;;;9.40;8.70;;;9.50;99.90;;;;;;5030584;28;20239;-75
2022/02/15 12:28:13;;;;;;;10.10;9.60;;;9.50;99.90;;;;;;5040285;28;20585;-76
2022/02/15 12:30:43;;;;;;;10.97;10.07;;;9.40;99.90;;;;;;5037277;28;20727;-76
2022/02/15 12:33:11;;;;;;;10.50;9.90;;;9.30;99.90;;;;;;5046425;28;20680;-76
2022/02/15 12:35:38;;;;;;;8.63;8.13;;;9.30;99.90;;;;;;5036593;28;20254;-76
2022/02/15 12:38:05;;;;;;;8.17;7.67;;;9.40;99.90;;;;;;5037053;28;20204;-75
2022/02/15 12:40:32;;;;;;;8.00;7.50;;;9.50;99.90;;;;;;5051602;28;20622;-76
2022/02/15 12:42:59;;;;;;;6.40;6.00;;;9.60;99.90;;;;;;5038187;28;20207;-81
2022/02/15 12:45:28;;;;;;;6.60;6.10;;;9.80;99.90;;;;;;5028092;28;20215;-81
2022/02/15 12:47:55;;;;;;;8.20;7.70;;;9.90;99.90;;;;;;5030523;28;20212;-80
2022/02/15 12:50:22;;;;;;;8.67;8.07;;;10.10;99.90;;;;;;5041483;28;20204;-77
2022/02/15 12:52:48;;;;;;;8.23;7.73;;;10.20;99.90;;;;;;5035080;28;20227;-78
2022/02/15 12:55:17;;;;;;;9.50;8.90;;;10.20;99.90;;;;;;5038240;28;20270;-76
2022/02/15 12:57:46;;;;;;;3.57;2.40;;;10.20;99.90;;;;;;5031989;28;20227;-75
2022/02/15 13:00:15;;;;;;;6.80;6.33;;;10.20;99.90;;;;;;5035020;28;20196;-76
2022/02/15 13:02:48;;;;;;;9.87;9.27;;;10.10;99.90;;;;;;5032693;28;20215;-76
2022/02/15 13:05:21;;;;;;;10.90;10.20;;;10.10;99.90;;;;;;5037980;28;20216;-76
2022/02/15 13:07:49;;;;;;;10.20;9.60;;;9.90;99.90;;;;;;5033203;28;20211;-75
2022/02/15 13:10:21;;;;;;;9.37;8.87;;;9.90;99.90;;;;;;5037880;28;20267;-75